createdAt,value
2022-12-17T00:01:07.951Z,7.61
2022-12-17T00:03:53.741Z,7.53
2022-12-17T00:06:42.425Z,7.42
2022-12-17T00:09:27.993Z,7.32
2022-12-17T00:12:13.249Z,7.27
2022-12-17T00:14:58.378Z,7.24
2022-12-17T00:17:45.737Z,7.14
2022-12-17T00:20:31.607Z,7.06
2022-12-17T00:23:17.380Z,7.02
2022-12-17T00:26:03.041Z,6.95
2022-12-17T00:28:48.278Z,6.90
2022-12-17T00:31:33.611Z,6.85
2022-12-17T00:34:20.734Z,6.78
2022-12-17T00:37:06.026Z,6.75
2022-12-17T00:39:53.606Z,6.71
2022-12-17T00:42:47.091Z,6.58
2022-12-17T00:45:32.716Z,6.50
2022-12-17T00:48:18.421Z,6.41
2022-12-17T00:51:05.467Z,6.29
2022-12-17T00:53:50.588Z,6.14
2022-12-17T00:56:36.015Z,6.11
2022-12-17T00:59:21.431Z,6.08
2022-12-17T01:02:06.736Z,6.03
2022-12-17T01:04:52.300Z,5.94
2022-12-17T01:07:39.401Z,5.86
2022-12-17T01:10:36.435Z,5.86
2022-12-17T01:13:21.977Z,5.94
2022-12-17T01:16:07.418Z,5.99
2022-12-17T01:18:52.525Z,6.04
2022-12-17T01:21:37.861Z,6.10
2022-12-17T01:24:25.426Z,6.14
2022-12-17T01:27:11.115Z,6.17
2022-12-17T01:29:56.465Z,6.11
2022-12-17T01:32:42.214Z,6.09
2022-12-17T01:35:27.264Z,6.10
2022-12-17T01:38:12.500Z,6.06
2022-12-17T01:40:59.304Z,6.00
2022-12-17T01:43:52.257Z,5.92
2022-12-17T01:46:38.333Z,5.99
2022-12-17T01:49:24.308Z,6.07
2022-12-17T01:52:11.004Z,6.13
2022-12-17T01:54:57.980Z,6.18
2022-12-17T01:57:45.409Z,6.22
2022-12-17T02:00:33.234Z,6.23
2022-12-17T02:03:20.190Z,6.25
2022-12-17T02:06:16.676Z,6.25
2022-12-17T02:09:13.321Z,6.23
2022-12-17T02:12:06.695Z,6.21
2022-12-17T02:15:00.769Z,6.19
2022-12-17T02:17:54.676Z,6.19
2022-12-17T02:20:47.313Z,6.20
2022-12-17T02:23:44.598Z,6.14
2022-12-17T02:26:37.397Z,6.10
2022-12-17T02:29:26.618Z,6.12
2022-12-17T02:32:13.339Z,6.13
2022-12-17T02:35:03.547Z,6.08
2022-12-17T02:37:50.424Z,6.11
2022-12-17T02:40:38.101Z,6.13
2022-12-17T02:43:24.971Z,6.14
2022-12-17T02:46:12.462Z,6.10
2022-12-17T02:48:58.100Z,6.09
2022-12-17T02:51:45.463Z,6.09
2022-12-17T02:54:31.274Z,6.08
2022-12-17T02:57:17.178Z,6.08
2022-12-17T03:00:03.293Z,6.09
2022-12-17T03:02:52.334Z,6.09
2022-12-17T03:05:45.606Z,5.98
2022-12-17T03:08:31.663Z,5.93
2022-12-17T03:11:17.239Z,5.98
2022-12-17T03:14:02.905Z,6.00
2022-12-17T03:16:48.848Z,6.00
2022-12-17T03:19:35.762Z,5.94
2022-12-17T03:22:24.154Z,5.94
2022-12-17T03:25:12.572Z,5.95
2022-12-17T03:27:58.138Z,5.98
2022-12-17T03:30:48.726Z,6.04
2022-12-17T03:33:36.288Z,6.05
2022-12-17T03:36:23.781Z,6.04
2022-12-17T03:39:09.152Z,6.03
2022-12-17T03:41:54.913Z,6.03
2022-12-17T03:44:39.685Z,6.05
2022-12-17T03:47:25.241Z,6.02
2022-12-17T03:50:10.901Z,5.99
2022-12-17T03:52:57.937Z,5.96
2022-12-17T03:55:43.224Z,5.84
2022-12-17T03:58:28.444Z,5.72
2022-12-17T04:01:14.042Z,5.72
2022-12-17T04:03:59.660Z,5.80
2022-12-17T04:06:45.527Z,5.80
2022-12-17T04:09:33.052Z,5.85
2022-12-17T04:12:18.732Z,5.81
2022-12-17T04:15:03.829Z,5.77
2022-12-17T04:17:49.521Z,5.75
2022-12-17T04:20:34.775Z,5.79
2022-12-17T04:23:20.442Z,5.82
2022-12-17T04:26:07.301Z,5.86
2022-12-17T04:28:52.527Z,5.85
2022-12-17T04:31:38.393Z,5.80
2022-12-17T04:34:24.144Z,5.78
2022-12-17T04:37:09.424Z,5.74
2022-12-17T04:39:54.927Z,5.72
2022-12-17T04:42:41.628Z,5.68
2022-12-17T04:45:28.093Z,5.61
2022-12-17T04:48:20.529Z,5.60
2022-12-17T04:51:05.837Z,5.61
2022-12-17T04:53:51.489Z,5.57
2022-12-17T04:56:41.022Z,5.55
2022-12-17T04:59:28.091Z,5.56
2022-12-17T05:02:14.091Z,5.54
2022-12-17T05:05:00.037Z,5.55
2022-12-17T05:07:45.437Z,5.55
2022-12-17T05:10:30.896Z,5.48
2022-12-17T05:13:17.125Z,5.45
2022-12-17T05:16:03.940Z,5.44
2022-12-17T05:18:49.773Z,5.45
2022-12-17T05:21:36.147Z,5.45
2022-12-17T05:24:21.701Z,5.39
2022-12-17T05:27:07.077Z,5.31
2022-12-17T05:29:52.260Z,5.22
2022-12-17T05:32:39.114Z,5.17
2022-12-17T05:35:25.823Z,5.21
2022-12-17T05:38:11.143Z,5.24
2022-12-17T05:41:10.076Z,5.26
2022-12-17T05:43:55.661Z,5.26
2022-12-17T05:46:40.914Z,5.28
2022-12-17T05:49:27.985Z,5.26
2022-12-17T05:52:14.266Z,5.23
2022-12-17T05:54:59.839Z,5.16
2022-12-17T05:57:45.521Z,5.12
2022-12-17T06:00:31.363Z,5.13
2022-12-17T06:03:17.889Z,5.05
2022-12-17T06:06:05.540Z,4.95
2022-12-17T06:08:51.370Z,4.89
2022-12-17T06:11:36.703Z,4.91
2022-12-17T06:14:22.699Z,4.80
2022-12-17T06:17:27.835Z,4.83
2022-12-17T06:20:13.246Z,4.90
2022-12-17T06:23:00.226Z,4.97
2022-12-17T06:25:45.576Z,5.01
2022-12-17T06:28:31.302Z,5.07
2022-12-17T06:31:16.538Z,5.14
2022-12-17T06:34:02.403Z,5.17
2022-12-17T06:36:48.208Z,5.21
2022-12-17T06:39:34.983Z,5.21
2022-12-17T06:42:20.329Z,5.29
2022-12-17T06:45:05.978Z,5.33
2022-12-17T06:47:51.848Z,5.36
2022-12-17T06:50:37.130Z,5.31
2022-12-17T06:53:25.184Z,5.26
2022-12-17T06:56:16.048Z,5.33
2022-12-17T06:59:01.841Z,5.43
2022-12-17T07:01:47.298Z,5.40
2022-12-17T07:04:32.604Z,5.37
2022-12-17T07:07:18.233Z,5.36
2022-12-17T07:10:06.854Z,5.42
2022-12-17T07:12:56.627Z,5.52
2022-12-17T07:15:42.294Z,5.71
2022-12-17T07:18:28.016Z,5.85
2022-12-17T07:21:13.560Z,5.98
2022-12-17T07:24:01.815Z,6.08
2022-12-17T07:26:47.667Z,6.24
2022-12-17T07:29:35.023Z,6.42
2022-12-17T07:32:20.372Z,6.61
2022-12-17T07:35:05.616Z,6.78
2022-12-17T07:37:51.572Z,6.97
2022-12-17T07:40:36.740Z,7.15
2022-12-17T07:43:28.629Z,7.23
2022-12-17T07:46:15.745Z,7.26
2022-12-17T07:49:01.178Z,7.40
2022-12-17T07:51:47.008Z,7.56
2022-12-17T07:54:32.215Z,8.01
2022-12-17T07:57:17.677Z,8.63
2022-12-17T08:00:03.072Z,8.93
2022-12-17T08:02:51.693Z,9.23
2022-12-17T08:05:37.555Z,9.32
2022-12-17T08:08:25.703Z,9.03
2022-12-17T08:11:11.001Z,8.82
2022-12-17T08:13:56.656Z,8.85
2022-12-17T08:16:42.429Z,8.86
2022-12-17T08:19:32.320Z,8.80
2022-12-17T08:22:17.628Z,8.81
2022-12-17T08:25:03.024Z,9.02
2022-12-17T08:27:48.854Z,9.39
2022-12-17T08:30:34.363Z,9.56
2022-12-17T08:33:23.776Z,9.63
2022-12-17T08:36:15.263Z,9.91
2022-12-17T08:39:01.160Z,10.32
2022-12-17T08:41:52.636Z,10.67
2022-12-17T08:44:39.588Z,10.90
2022-12-17T08:47:24.930Z,11.14
2022-12-17T08:50:10.522Z,11.33
2022-12-17T08:52:58.794Z,11.54
2022-12-17T08:55:44.637Z,11.75
2022-12-17T08:58:30.480Z,11.95
2022-12-17T09:01:17.482Z,12.13
2022-12-17T09:04:03.940Z,12.27
2022-12-17T09:06:50.257Z,12.52
2022-12-17T09:09:37.143Z,12.84
2022-12-17T09:12:22.998Z,13.13
2022-12-17T09:15:08.381Z,13.33
2022-12-17T09:17:53.703Z,13.24
2022-12-17T09:20:39.122Z,13.10
2022-12-17T09:23:24.953Z,13.22
2022-12-17T09:26:15.759Z,13.28
2022-12-17T09:29:01.652Z,13.32
2022-12-17T09:31:48.644Z,13.12
2022-12-17T09:34:34.493Z,13.07
2022-12-17T09:37:19.996Z,13.11
2022-12-17T09:40:05.747Z,13.10
2022-12-17T09:43:00.445Z,13.11
2022-12-17T09:45:53.698Z,13.20
2022-12-17T09:48:49.057Z,13.09
2022-12-17T09:51:41.413Z,13.33
2022-12-17T09:54:34.666Z,13.55
2022-12-17T09:57:20.422Z,13.97
2022-12-17T10:00:07.695Z,14.33
2022-12-17T10:02:58.300Z,14.58
2022-12-17T10:05:47.700Z,14.92
2022-12-17T10:08:36.106Z,15.31
2022-12-17T10:11:38.169Z,15.65
2022-12-17T10:14:34.803Z,15.88
2022-12-17T10:17:22.324Z,16.12
2022-12-17T10:20:10.578Z,16.36
2022-12-17T10:23:06.917Z,16.48
2022-12-17T10:25:53.794Z,16.60
2022-12-17T10:28:41.458Z,16.64
2022-12-17T10:31:29.770Z,16.59
2022-12-17T10:34:16.593Z,16.40
2022-12-17T10:37:09.172Z,16.11
2022-12-17T10:39:57.519Z,15.71
2022-12-17T10:42:44.452Z,15.07
2022-12-17T10:45:41.960Z,14.57
2022-12-17T10:48:39.332Z,14.48
2022-12-17T10:51:44.725Z,14.43
2022-12-17T10:54:47.006Z,14.29
2022-12-17T10:57:43.078Z,14.39
2022-12-17T11:00:49.040Z,14.73
2022-12-17T11:03:47.674Z,14.75
2022-12-17T11:06:42.634Z,15.05
2022-12-17T11:09:36.240Z,15.19
2022-12-17T11:12:30.295Z,15.34
2022-12-17T11:15:19.128Z,15.25
2022-12-17T11:18:11.114Z,15.43
2022-12-17T11:21:06.150Z,15.80
2022-12-17T11:23:56.097Z,15.98
2022-12-17T11:26:45.709Z,15.97
2022-12-17T11:29:32.430Z,15.98
2022-12-17T11:32:36.004Z,15.88
2022-12-17T11:35:28.283Z,15.88
2022-12-17T11:38:22.633Z,15.93
2022-12-17T11:41:14.425Z,16.03
2022-12-17T11:44:06.285Z,16.22
2022-12-17T11:47:09.940Z,16.18
2022-12-17T11:50:05.972Z,16.22
2022-12-17T11:52:55.224Z,16.11
2022-12-17T11:55:50.144Z,16.08
2022-12-17T11:58:41.548Z,15.91
2022-12-17T12:01:35.411Z,15.94
2022-12-17T12:04:34.752Z,16.02
2022-12-17T12:07:28.224Z,16.16
2022-12-17T12:10:18.053Z,16.30
2022-12-17T12:13:17.957Z,16.36
2022-12-17T12:16:17.657Z,15.98
2022-12-17T12:19:13.736Z,15.71
2022-12-17T12:22:07.633Z,15.50
2022-12-17T12:25:19.374Z,15.20
2022-12-17T12:28:14.180Z,14.95
2022-12-17T12:31:09.611Z,14.79
2022-12-17T12:34:09.526Z,14.66
2022-12-17T12:36:58.089Z,14.59
2022-12-17T12:39:54.505Z,14.45
2022-12-17T12:42:44.549Z,14.33
2022-12-17T12:45:52.606Z,14.26
2022-12-17T12:48:53.248Z,14.12
2022-12-17T12:51:43.359Z,14.05
2022-12-17T12:54:44.123Z,13.89
2022-12-17T12:57:47.085Z,13.83
2022-12-17T13:00:55.779Z,13.72
2022-12-17T13:03:48.573Z,13.57
2022-12-17T13:06:41.397Z,13.51
2022-12-17T13:09:21.930Z,13.48
2022-12-17T13:11:50.919Z,13.47
2022-12-17T13:14:22.157Z,13.46
2022-12-17T13:16:53.926Z,13.42
2022-12-17T13:19:35.689Z,13.33
2022-12-17T13:22:28.220Z,13.26
2022-12-17T13:25:09.035Z,13.16
2022-12-17T13:27:39.212Z,13.18
2022-12-17T13:30:22.150Z,13.18
2022-12-17T13:32:59.337Z,13.14
2022-12-17T13:35:38.017Z,13.14
2022-12-17T13:38:14.024Z,13.03
2022-12-17T13:40:45.274Z,12.98
2022-12-17T13:43:21.132Z,12.88
2022-12-17T13:45:50.497Z,12.86
2022-12-17T13:48:21.987Z,12.81
2022-12-17T13:50:59.759Z,12.81
2022-12-17T13:53:27.609Z,12.84
2022-12-17T13:55:56.781Z,12.87
2022-12-17T13:58:26.187Z,12.87
2022-12-17T14:01:04.933Z,12.86
2022-12-17T14:03:57.127Z,12.84
2022-12-17T14:06:22.217Z,12.85
2022-12-17T14:08:51.166Z,12.82
2022-12-17T14:11:47.504Z,12.83
2022-12-17T14:14:22.399Z,12.84
2022-12-17T14:16:51.059Z,12.90
2022-12-17T14:19:22.065Z,12.89
2022-12-17T14:21:51.605Z,12.87
2022-12-17T14:24:23.400Z,12.87
2022-12-17T14:26:51.644Z,12.85
2022-12-17T14:29:23.646Z,12.84
2022-12-17T14:31:55.657Z,12.87
2022-12-17T14:34:23.215Z,12.88
2022-12-17T14:36:56.649Z,12.90
2022-12-17T14:39:27.309Z,12.88
2022-12-17T14:42:14.017Z,12.85
2022-12-17T14:44:50.680Z,12.83
2022-12-17T14:47:21.668Z,12.82
2022-12-17T14:50:01.542Z,12.78
2022-12-17T14:52:38.729Z,12.76
2022-12-17T14:55:28.742Z,12.74
2022-12-17T14:58:22.156Z,12.72
2022-12-17T15:00:52.675Z,12.69
2022-12-17T15:03:25.951Z,12.66
2022-12-17T15:05:56.766Z,12.63
2022-12-17T15:08:25.737Z,12.61
2022-12-17T15:10:52.770Z,12.56
2022-12-17T15:13:22.830Z,12.53
2022-12-17T15:15:50.122Z,12.51
2022-12-17T15:18:17.104Z,12.49
2022-12-17T15:20:44.249Z,12.45
2022-12-17T15:23:17.030Z,12.42
2022-12-17T15:25:47.290Z,12.38
2022-12-17T15:28:15.329Z,12.31
2022-12-17T15:30:42.424Z,12.23
2022-12-17T15:33:10.471Z,12.15
2022-12-17T15:35:38.525Z,12.11
2022-12-17T15:38:06.315Z,12.05
2022-12-17T15:40:33.556Z,12.02
2022-12-17T15:43:14.001Z,12.00
2022-12-17T15:45:42.825Z,11.98
2022-12-17T15:48:10.485Z,11.94
2022-12-17T15:50:38.173Z,11.78
2022-12-17T15:53:05.511Z,11.65
2022-12-17T15:55:32.978Z,11.53
2022-12-17T15:58:01.375Z,11.44
2022-12-17T16:00:28.514Z,11.33
2022-12-17T16:02:56.102Z,11.26
2022-12-17T16:05:23.492Z,11.15
2022-12-17T16:07:51.512Z,11.07
2022-12-17T16:10:19.185Z,11.03
2022-12-17T16:12:46.427Z,10.98
2022-12-17T16:15:14.954Z,11.02
2022-12-17T16:17:41.973Z,11.08
2022-12-17T16:20:10.509Z,11.14
2022-12-17T16:22:37.611Z,11.16
2022-12-17T16:25:05.809Z,11.16
2022-12-17T16:27:32.945Z,11.18
2022-12-17T16:30:00.158Z,11.16
2022-12-17T16:32:34.609Z,11.16
2022-12-17T16:35:04.888Z,11.20
2022-12-17T16:37:32.233Z,11.27
2022-12-17T16:40:00.344Z,11.28
2022-12-17T16:42:28.139Z,11.27
2022-12-17T16:44:55.177Z,11.28
2022-12-17T16:47:22.317Z,11.27
2022-12-17T16:49:51.686Z,11.26
2022-12-17T16:52:18.631Z,11.23
2022-12-17T16:54:45.566Z,11.21
2022-12-17T16:57:12.551Z,11.25
2022-12-17T16:59:39.679Z,11.25
2022-12-17T17:02:12.909Z,11.19
2022-12-17T17:04:40.127Z,11.17
2022-12-17T17:07:08.655Z,11.18
2022-12-17T17:09:35.621Z,11.20
2022-12-17T17:12:02.768Z,11.21
2022-12-17T17:14:29.813Z,11.20
2022-12-17T17:16:56.970Z,11.16
2022-12-17T17:19:25.091Z,11.07
2022-12-17T17:21:54.442Z,10.96
2022-12-17T17:24:25.801Z,10.93
2022-12-17T17:26:54.467Z,10.92
2022-12-17T17:29:22.297Z,10.89
2022-12-17T17:34:39.636Z,10.84
2022-12-17T17:37:06.780Z,10.81
2022-12-17T17:39:35.238Z,10.76
2022-12-17T17:42:02.755Z,10.70
2022-12-17T17:44:29.987Z,10.67
2022-12-17T17:46:56.987Z,10.61
2022-12-17T17:49:27.765Z,10.59
2022-12-17T17:52:11.687Z,10.61
2022-12-17T17:54:40.431Z,10.60
2022-12-17T17:57:07.761Z,10.61
2022-12-17T17:59:34.882Z,10.63
2022-12-17T18:02:03.449Z,10.66
2022-12-17T18:04:33.535Z,10.72
2022-12-17T18:09:48.798Z,10.89
2022-12-17T18:12:50.870Z,10.84
2022-12-17T18:15:18.768Z,10.80
2022-12-17T18:17:49.774Z,10.77
2022-12-17T18:20:17.116Z,10.76
2022-12-17T18:22:46.283Z,10.75
2022-12-17T18:25:15.636Z,10.75
2022-12-17T18:27:43.385Z,10.72
2022-12-17T18:30:11.269Z,10.71
2022-12-17T18:32:38.224Z,10.69
2022-12-17T18:35:06.334Z,10.68
2022-12-17T18:37:33.321Z,10.68
2022-12-17T18:40:00.772Z,10.68
2022-12-17T18:42:47.444Z,10.67
2022-12-17T18:45:15.014Z,10.63
2022-12-17T18:47:44.295Z,10.61
2022-12-17T18:50:12.254Z,10.59
2022-12-17T18:52:39.472Z,10.59
2022-12-17T18:55:09.951Z,10.62
2022-12-17T18:57:38.481Z,10.63
2022-12-17T19:00:07.662Z,10.62
2022-12-17T19:02:34.822Z,10.60
2022-12-17T19:05:02.126Z,10.62
2022-12-17T19:07:29.121Z,10.66
2022-12-17T19:09:56.356Z,10.71
2022-12-17T19:12:23.300Z,10.72
2022-12-17T19:14:51.966Z,10.71
2022-12-17T19:17:18.903Z,10.73
2022-12-17T19:19:47.091Z,10.74
2022-12-17T19:22:14.156Z,10.76
2022-12-17T19:24:41.306Z,10.78
2022-12-17T19:27:08.376Z,10.80
2022-12-17T19:29:35.472Z,10.82
2022-12-17T19:32:04.091Z,10.87
2022-12-17T19:34:32.395Z,10.87
2022-12-17T19:36:59.450Z,10.87
2022-12-17T19:39:26.898Z,10.84
2022-12-17T19:41:54.152Z,10.85
2022-12-17T19:44:21.617Z,10.85
2022-12-17T19:46:49.033Z,10.88
2022-12-17T19:49:17.575Z,10.87
2022-12-17T19:51:45.349Z,10.89
2022-12-17T19:54:14.928Z,10.86
2022-12-17T19:56:42.820Z,10.87
2022-12-17T19:59:11.757Z,10.90
2022-12-17T20:01:43.992Z,10.95
2022-12-17T20:04:12.697Z,10.94
2022-12-17T20:06:41.095Z,10.90
2022-12-17T20:09:08.100Z,10.87
2022-12-17T20:11:35.796Z,10.86
2022-12-17T20:14:06.544Z,10.83
2022-12-17T20:16:36.168Z,10.82
2022-12-17T20:19:04.951Z,10.81
2022-12-17T20:21:32.050Z,10.82
2022-12-17T20:24:00.588Z,10.84
2022-12-17T20:26:30.150Z,10.78
2022-12-17T20:28:57.470Z,10.73
2022-12-17T20:31:24.512Z,10.72
2022-12-17T20:33:51.559Z,10.72
2022-12-17T20:36:21.183Z,10.69
2022-12-17T20:38:49.394Z,10.68
2022-12-17T20:41:19.771Z,10.70
2022-12-17T20:43:47.121Z,10.73
2022-12-17T20:46:14.284Z,10.76
2022-12-17T20:48:43.089Z,10.75
2022-12-17T20:51:11.678Z,10.77
2022-12-17T20:53:39.167Z,10.79
2022-12-17T20:56:08.054Z,10.78
2022-12-17T20:58:37.662Z,10.75
2022-12-17T21:01:06.216Z,10.72
2022-12-17T21:03:34.041Z,10.64
2022-12-17T21:06:07.015Z,10.68
2022-12-17T21:08:34.597Z,10.67
2022-12-17T21:11:01.925Z,10.62
2022-12-17T21:13:29.037Z,10.62
2022-12-17T21:15:58.078Z,10.68
2022-12-17T21:18:25.738Z,10.64
2022-12-17T21:20:58.107Z,10.62
2022-12-17T21:23:25.706Z,10.61
2022-12-17T21:25:58.502Z,10.58
2022-12-17T21:28:26.274Z,10.54
2022-12-17T21:30:53.393Z,10.52
2022-12-17T21:33:22.292Z,10.53
2022-12-17T21:35:49.570Z,10.52
2022-12-17T21:38:16.921Z,10.52
2022-12-17T21:40:43.902Z,10.53
2022-12-17T21:43:11.131Z,10.47
2022-12-17T21:45:39.713Z,10.48
2022-12-17T21:48:11.318Z,10.49
2022-12-17T21:50:43.770Z,10.48
2022-12-17T21:53:13.578Z,10.44
2022-12-17T21:55:40.634Z,10.42
2022-12-17T21:58:08.869Z,10.38
2022-12-17T22:00:35.860Z,10.38
2022-12-17T22:03:03.030Z,10.39
2022-12-17T22:05:30.041Z,10.41
2022-12-17T22:07:59.172Z,10.43
2022-12-17T22:10:48.112Z,10.40
2022-12-17T22:13:31.862Z,10.39
2022-12-17T22:15:59.067Z,10.34
2022-12-17T22:18:26.024Z,10.29
2022-12-17T22:21:00.687Z,10.26
2022-12-17T22:23:29.541Z,10.24
2022-12-17T22:25:56.765Z,10.26
2022-12-17T22:28:23.854Z,10.26
2022-12-17T22:31:10.764Z,10.23
2022-12-17T22:34:32.620Z,10.22
2022-12-17T22:38:50.433Z,10.23
2022-12-17T22:42:43.940Z,10.23
2022-12-17T22:44:42.337Z,10.22
2022-12-17T22:45:11.356Z,10.25
2022-12-17T22:47:39.330Z,10.24
2022-12-17T22:50:06.861Z,10.22
2022-12-17T22:52:34.529Z,10.21
2022-12-17T22:55:03.983Z,10.16
2022-12-17T22:57:37.514Z,10.20
2022-12-17T23:00:10.534Z,10.20
2022-12-17T23:02:37.698Z,10.18
2022-12-17T23:05:05.142Z,10.16
2022-12-17T23:07:32.276Z,10.15
2022-12-17T23:09:59.370Z,10.13
2022-12-17T23:12:46.344Z,9.99
2022-12-17T23:15:13.332Z,9.94
2022-12-17T23:17:40.337Z,9.89
2022-12-17T23:20:08.097Z,9.89
2022-12-17T23:22:35.116Z,9.88
2022-12-17T23:25:02.167Z,9.83
2022-12-17T23:27:31.320Z,9.78
2022-12-17T23:29:58.901Z,9.73
2022-12-17T23:32:25.854Z,9.68
2022-12-17T23:34:52.775Z,9.61
2022-12-17T23:37:19.714Z,9.58
2022-12-17T23:39:46.684Z,9.55
2022-12-17T23:42:13.680Z,9.55
2022-12-17T23:44:42.096Z,9.53
2022-12-17T23:47:09.006Z,9.54
2022-12-17T23:49:35.940Z,9.52
2022-12-17T23:52:03.083Z,9.55
2022-12-17T23:54:30.032Z,9.58
2022-12-17T23:56:56.965Z,9.59
2022-12-17T23:59:23.848Z,9.63
